CheckWX is a tool to help pilots better visualize weather data.  It is not intended as a substitute for an official pre-flight weather briefing.

00:22:04 UTC

CYKF METAR
Waterloo Airport
Kitchener, Canada
Current

1 hour ago

CYKF 192300Z AUTO 31007KT 9SM CLR M10/M13 A3009 RMK PRESRR SLP211
Observed
Jan-19 @ 23:00 UTC
Wind
  • 310° at 7 KTS
Visibility
9 SM
Flight Rules
VFR
Cloud Levels
  • Clear skies
Temperature
-10°C / 14°F
Dewpoint
-13°C / 9°F
Humidity
79%
Altimeter
30.09" Hg
Pressure
1018.92 hPa
Previous

2 hours ago

CYKF 192200Z AUTO 32009G17KT 9SM CLR M09/M13 A3004 RMK SLP192
Observed
Jan-19 @ 22:00 UTC
Wind
  • 320° at 9 KTS
  • Gusting to 17 KTS
Visibility
9 SM
Flight Rules
VFR
Cloud Levels
  • Clear skies
Temperature
-9°C / 16°F
Dewpoint
-13°C / 9°F
Humidity
73%
Altimeter
30.04" Hg
Pressure
1017.32 hPa
Previous

3 hours ago

CYKF 192141Z AUTO 31010KT 9SM CLR M08/M13 A3003 RMK SLP187
Observed
Jan-19 @ 21:41 UTC
Wind
  • 310° at 10 KTS
Visibility
9 SM
Flight Rules
VFR
Cloud Levels
  • Clear skies
Temperature
-8°C / 18°F
Dewpoint
-13°C / 9°F
Humidity
68%
Altimeter
30.03" Hg
Pressure
1016.92 hPa